createdAt,value
2022-08-03T00:31:45.023Z,26.89
2022-08-03T00:41:59.590Z,26.88
2022-08-03T00:52:09.523Z,26.85
2022-08-03T01:12:36.210Z,26.84
2022-08-03T01:44:27.891Z,26.82
2022-08-03T01:53:58.065Z,26.83
2022-08-03T02:04:24.166Z,26.85
2022-08-03T02:14:37.877Z,26.82
2022-08-03T02:34:56.829Z,26.85
2022-08-03T02:45:53.412Z,26.86
2022-08-03T02:55:47.740Z,26.85
2022-08-03T03:16:23.171Z,26.81
2022-08-03T03:26:30.729Z,26.82
2022-08-03T03:46:50.759Z,26.78
2022-08-03T04:07:19.015Z,26.76
2022-08-03T04:17:22.650Z,26.75
2022-08-03T04:27:23.995Z,26.74
2022-08-03T04:37:25.319Z,26.78
2022-08-03T04:47:26.579Z,26.64
2022-08-03T04:57:27.826Z,26.63
2022-08-03T05:07:35.681Z,26.57
2022-08-03T05:17:37.747Z,26.71
2022-08-03T05:27:45.682Z,26.70
2022-08-03T05:37:55.749Z,26.69
2022-08-03T05:48:03.761Z,26.77
2022-08-03T05:58:12.434Z,26.83
2022-08-03T06:39:23.400Z,26.87
2022-08-03T06:49:28.819Z,26.86
2022-08-03T07:20:32.230Z,26.86
2022-08-03T07:51:19.720Z,26.95
2022-08-03T08:11:50.003Z,27.05
2022-08-03T08:21:53.418Z,27.08
2022-08-03T08:42:40.346Z,27.12
2022-08-03T08:52:48.185Z,27.11
2022-08-03T09:02:55.817Z,27.16
2022-08-03T09:12:57.334Z,27.16
2022-08-03T09:23:14.032Z,27.18
2022-08-03T09:33:24.609Z,27.20
2022-08-03T09:43:37.342Z,27.22
2022-08-03T09:53:38.700Z,27.26
2022-08-03T10:14:30.217Z,27.23
2022-08-03T10:35:00.262Z,27.38
2022-08-03T10:45:03.317Z,27.38
2022-08-03T10:55:40.385Z,27.39
2022-08-03T11:05:46.778Z,27.42
2022-08-03T11:16:00.103Z,27.47
2022-08-03T11:26:04.844Z,27.48
2022-08-03T11:36:13.399Z,27.48
2022-08-03T11:57:03.299Z,27.50
2022-08-03T12:07:07.830Z,27.55
2022-08-03T12:17:15.918Z,27.58
2022-08-03T12:27:24.781Z,27.57
2022-08-03T12:37:37.164Z,27.58
2022-08-03T12:47:41.822Z,27.57
2022-08-03T12:57:49.788Z,27.62
2022-08-03T13:07:57.779Z,27.53
2022-08-03T13:18:05.789Z,27.54
2022-08-03T13:28:16.620Z,27.58
2022-08-03T13:38:18.119Z,27.58
2022-08-03T13:48:37.318Z,27.60
2022-08-03T13:58:39.772Z,27.62
2022-08-03T14:50:30.373Z,27.71
2022-08-03T15:20:36.437Z,27.70
2022-08-03T15:41:13.764Z,27.71
2022-08-03T15:51:18.075Z,27.73
2022-08-03T16:01:25.970Z,27.71
2022-08-03T16:11:33.922Z,27.71
2022-08-03T16:21:42.019Z,27.70
2022-08-03T16:31:51.191Z,27.73
2022-08-03T16:42:00.959Z,27.74
2022-08-03T16:52:08.932Z,27.70
2022-08-03T17:02:15.032Z,27.72
2022-08-03T17:12:26.774Z,27.73
2022-08-03T17:22:33.115Z,27.72
2022-08-03T17:32:43.018Z,27.71
2022-08-03T17:53:33.131Z,27.72
2022-08-03T18:03:58.112Z,27.73
2022-08-03T18:45:55.622Z,27.69
2022-08-03T19:16:26.781Z,27.71
2022-08-03T19:26:31.235Z,27.72
2022-08-03T19:57:05.964Z,27.67
2022-08-03T21:09:55.419Z,27.73
2022-08-03T21:20:04.203Z,27.74
2022-08-03T21:50:42.517Z,27.70
2022-08-03T22:00:48.026Z,27.70
2022-08-03T22:10:56.514Z,27.68
2022-08-03T22:21:02.288Z,27.66
2022-08-03T22:31:31.025Z,27.64
2022-08-03T22:41:29.529Z,27.65
2022-08-03T22:51:37.432Z,27.60
2022-08-03T23:01:45.881Z,27.57
2022-08-03T23:11:47.463Z,27.54
2022-08-03T23:22:00.259Z,27.54
2022-08-03T23:32:06.455Z,27.55
2022-08-03T23:42:10.900Z,27.52
2022-08-03T23:52:12.243Z,27.53
